DLH4NV ENBR-EDDM
Flight info
| Callsign | DLH4NV |
|---|---|
| Flight time | N/A |
| Altitude | 39000 |
| Route | TUXIL DCT ZOL DCT ATTUS DCT ABGUS Z94 GALMA T703 LULAR T105 LANDU LANDU2A |
| Aircraft | A319/M-SDE3FGHIRWY/LB1 |
Departure
| Time | 2026-05-01 13:34 |
|---|---|
| Airport | Bergen Airport, Flesland (ENBR) |
Arrival
| Time | N/A |
|---|---|
| Airport | Munich Airport (EDDM) |
| Time | Latitude | Longitude | Altitude | Speed | Heading |
|---|---|---|---|---|---|
| 2026-05-01 13:07 | 60.28928 | 5.22558 | 173 ft | 0 kts | 107° |
| 2026-05-01 13:21 | 60.28934 | 5.22520 | 172 ft | 4 kts | 107° |
| 2026-05-01 13:22 | 60.28941 | 5.22467 | 170 ft | 4 kts | 95° |
| 2026-05-01 13:22 | 60.28939 | 5.22417 | 167 ft | 4 kts | 56° |
| 2026-05-01 13:22 | 60.28927 | 5.22400 | 167 ft | 1 kts | 351° |
| 2026-05-01 13:22 | 60.28923 | 5.22401 | 167 ft | 1 kts | 351° |
| 2026-05-01 13:27 | 60.28931 | 5.22398 | 166 ft | 3 kts | 350° |
| 2026-05-01 13:27 | 60.28960 | 5.22388 | 166 ft | 5 kts | 349° |
| 2026-05-01 13:27 | 60.29053 | 5.22352 | 166 ft | 7 kts | 343° |
| 2026-05-01 13:28 | 60.29143 | 5.22203 | 163 ft | 10 kts | 351° |
| 2026-05-01 13:28 | 60.29213 | 5.22181 | 163 ft | 9 kts | 350° |
| 2026-05-01 13:29 | 60.29393 | 5.22117 | 158 ft | 18 kts | 350° |
| 2026-05-01 13:29 | 60.29677 | 5.22024 | 148 ft | 23 kts | 351° |
| 2026-05-01 13:30 | 60.29973 | 5.21921 | 156 ft | 0 kts | 349° |
| 2026-05-01 13:31 | 60.29984 | 5.21917 | 156 ft | 5 kts | 350° |
| 2026-05-01 13:31 | 60.30341 | 5.21801 | 170 ft | 18 kts | 351° |
| 2026-05-01 13:32 | 60.30601 | 5.21714 | 180 ft | 15 kts | 350° |
| 2026-05-01 13:33 | 60.30628 | 5.21385 | 186 ft | 9 kts | 186° |
| 2026-05-01 13:33 | 60.29956 | 5.21608 | 161 ft | 117 kts | 171° |
| 2026-05-01 13:34 | 60.28050 | 5.22267 | 1309 ft | 138 kts | 174° |
| 2026-05-01 13:34 | 60.25892 | 5.22946 | 2320 ft | 181 kts | 174° |
| 2026-05-01 13:35 | 60.23071 | 5.23864 | 3469 ft | 227 kts | 173° |
| 2026-05-01 13:35 | 60.21486 | 5.24396 | 4410 ft | 234 kts | 174° |
| 2026-05-01 13:35 | 60.18184 | 5.25508 | 6335 ft | 247 kts | 176° |
| 2026-05-01 13:36 | 60.16461 | 5.26084 | 7233 ft | 254 kts | 176° |
| 2026-05-01 13:36 | 60.14707 | 5.26669 | 8172 ft | 258 kts | 177° |
| 2026-05-01 13:36 | 60.11110 | 5.27864 | 10077 ft | 266 kts | 178° |
| 2026-05-01 13:37 | 60.09245 | 5.28476 | 10682 ft | 282 kts | 178° |
| 2026-05-01 13:37 | 60.07926 | 5.28868 | 10927 ft | 296 kts | 179° |
| 2026-05-01 13:37 | 60.05119 | 5.29624 | 11780 ft | 309 kts | 179° |
| 2026-05-01 13:37 | 60.02973 | 5.30190 | 12593 ft | 313 kts | 179° |
| 2026-05-01 13:38 | 59.99339 | 5.31148 | 13898 ft | 321 kts | 179° |
| 2026-05-01 13:38 | 59.97102 | 5.31735 | 14616 ft | 326 kts | 179° |
| 2026-05-01 13:38 | 59.94837 | 5.32328 | 15310 ft | 331 kts | 179° |
| 2026-05-01 13:39 | 59.92538 | 5.32933 | 16024 ft | 335 kts | 179° |
| 2026-05-01 13:39 | 59.90209 | 5.33551 | 16724 ft | 340 kts | 179° |
| 2026-05-01 13:39 | 59.87850 | 5.34180 | 17432 ft | 344 kts | 179° |
| 2026-05-01 13:39 | 59.85461 | 5.34815 | 18136 ft | 349 kts | 179° |
| 2026-05-01 13:40 | 59.83047 | 5.35456 | 18778 ft | 353 kts | 179° |
| 2026-05-01 13:40 | 59.80597 | 5.36109 | 19395 ft | 356 kts | 179° |
| 2026-05-01 13:40 | 59.78130 | 5.36700 | 20054 ft | 358 kts | 180° |
| 2026-05-01 13:40 | 59.75645 | 5.37160 | 20678 ft | 360 kts | 181° |
| 2026-05-01 13:41 | 59.73140 | 5.37549 | 21292 ft | 362 kts | 182° |
| 2026-05-01 13:41 | 59.70622 | 5.37914 | 21936 ft | 365 kts | 182° |
| 2026-05-01 13:41 | 59.68079 | 5.38284 | 22580 ft | 367 kts | 182° |
| 2026-05-01 13:41 | 59.65520 | 5.38669 | 23195 ft | 370 kts | 181° |
| 2026-05-01 13:42 | 59.62944 | 5.39127 | 23811 ft | 374 kts | 180° |
| 2026-05-01 13:42 | 59.60343 | 5.39729 | 24323 ft | 378 kts | 179° |
| 2026-05-01 13:42 | 59.57722 | 5.40419 | 24820 ft | 381 kts | 179° |
| 2026-05-01 13:42 | 59.55085 | 5.41149 | 25320 ft | 384 kts | 178° |
| 2026-05-01 13:43 | 59.52431 | 5.41883 | 25800 ft | 386 kts | 178° |
| 2026-05-01 13:43 | 59.49755 | 5.42602 | 26276 ft | 389 kts | 179° |
| 2026-05-01 13:43 | 59.47067 | 5.43302 | 26715 ft | 391 kts | 178° |
| 2026-05-01 13:43 | 59.44355 | 5.43988 | 27152 ft | 394 kts | 179° |
| 2026-05-01 13:44 | 59.41625 | 5.44671 | 27601 ft | 397 kts | 179° |
| 2026-05-01 13:44 | 59.38886 | 5.45396 | 28061 ft | 400 kts | 177° |
| 2026-05-01 13:44 | 59.36128 | 5.46296 | 28523 ft | 403 kts | 176° |
| 2026-05-01 13:44 | 59.33359 | 5.47319 | 28978 ft | 406 kts | 175° |
| 2026-05-01 13:45 | 59.30572 | 5.48401 | 29414 ft | 409 kts | 175° |
| 2026-05-01 13:45 | 59.27769 | 5.49495 | 29846 ft | 412 kts | 175° |
| 2026-05-01 13:45 | 59.24947 | 5.50574 | 30262 ft | 414 kts | 175° |
| 2026-05-01 13:45 | 59.22106 | 5.51630 | 30617 ft | 417 kts | 175° |
| 2026-05-01 13:46 | 59.19252 | 5.52668 | 30936 ft | 419 kts | 175° |
| 2026-05-01 13:46 | 59.16377 | 5.53697 | 31281 ft | 421 kts | 175° |
| 2026-05-01 13:46 | 59.13486 | 5.54724 | 31614 ft | 423 kts | 175° |
| 2026-05-01 13:46 | 59.10584 | 5.55758 | 31938 ft | 425 kts | 175° |
| 2026-05-01 13:47 | 59.07711 | 5.56787 | 32369 ft | 425 kts | 175° |
| 2026-05-01 13:47 | 59.04806 | 5.57833 | 32830 ft | 424 kts | 175° |
| 2026-05-01 13:47 | 59.01908 | 5.58877 | 33292 ft | 423 kts | 175° |
| 2026-05-01 13:47 | 58.99021 | 5.59917 | 33749 ft | 422 kts | 175° |
| 2026-05-01 13:48 | 58.96133 | 5.60950 | 34223 ft | 422 kts | 175° |
| 2026-05-01 13:48 | 58.93245 | 5.61973 | 34627 ft | 421 kts | 175° |
| 2026-05-01 13:48 | 58.90366 | 5.62993 | 34983 ft | 420 kts | 175° |
| 2026-05-01 13:48 | 58.87508 | 5.64294 | 35336 ft | 425 kts | 167° |
| 2026-05-01 13:49 | 58.84759 | 5.66462 | 35691 ft | 430 kts | 160° |
| 2026-05-01 13:49 | 58.82048 | 5.68886 | 36045 ft | 429 kts | 160° |
| 2026-05-01 13:49 | 58.79335 | 5.71284 | 36391 ft | 428 kts | 161° |
| 2026-05-01 13:49 | 58.76624 | 5.73667 | 36751 ft | 428 kts | 161° |
| 2026-05-01 13:50 | 58.73916 | 5.76048 | 37093 ft | 427 kts | 161° |
| 2026-05-01 13:50 | 58.71219 | 5.78415 | 37425 ft | 427 kts | 161° |
| 2026-05-01 13:50 | 58.68518 | 5.80780 | 37744 ft | 426 kts | 161° |
| 2026-05-01 13:50 | 58.65820 | 5.83144 | 38062 ft | 426 kts | 160° |
| 2026-05-01 13:51 | 58.63123 | 5.85503 | 38369 ft | 425 kts | 160° |
| 2026-05-01 13:51 | 58.60432 | 5.87857 | 38663 ft | 425 kts | 160° |
| 2026-05-01 13:51 | 58.57742 | 5.90210 | 38944 ft | 425 kts | 160° |
| 2026-05-01 13:51 | 58.55052 | 5.92557 | 39164 ft | 425 kts | 160° |
| 2026-05-01 13:52 | 58.52355 | 5.94905 | 39251 ft | 426 kts | 160° |
| 2026-05-01 13:52 | 58.46947 | 5.99599 | 39274 ft | 427 kts | 160° |
| 2026-05-01 13:53 | 58.41537 | 6.04289 | 39280 ft | 427 kts | 160° |
| 2026-05-01 13:53 | 58.33418 | 6.11278 | 39280 ft | 427 kts | 160° |
| 2026-05-01 13:54 | 58.28007 | 6.15928 | 39280 ft | 427 kts | 160° |
| 2026-05-01 13:54 | 58.22628 | 6.20522 | 39275 ft | 427 kts | 160° |
| 2026-05-01 13:55 | 58.17200 | 6.25140 | 39284 ft | 428 kts | 160° |
| 2026-05-01 13:55 | 58.11763 | 6.29760 | 39290 ft | 428 kts | 160° |
| 2026-05-01 13:56 | 58.06322 | 6.34367 | 39286 ft | 428 kts | 160° |
| 2026-05-01 13:56 | 58.00883 | 6.38949 | 39286 ft | 428 kts | 160° |
| 2026-05-01 13:57 | 57.95447 | 6.43520 | 39291 ft | 428 kts | 160° |
| 2026-05-01 13:57 | 57.90001 | 6.48085 | 39294 ft | 428 kts | 160° |
| 2026-05-01 13:58 | 57.84563 | 6.52627 | 39293 ft | 428 kts | 160° |
| 2026-05-01 13:58 | 57.79120 | 6.57167 | 39302 ft | 428 kts | 160° |
| 2026-05-01 13:59 | 57.73672 | 6.61691 | 39289 ft | 428 kts | 160° |
| 2026-05-01 13:59 | 57.68233 | 6.66188 | 39289 ft | 428 kts | 160° |
| 2026-05-01 14:00 | 57.62776 | 6.70673 | 39283 ft | 428 kts | 161° |
| 2026-05-01 14:00 | 57.57321 | 6.75156 | 39289 ft | 429 kts | 160° |
| 2026-05-01 14:01 | 57.51850 | 6.79646 | 39293 ft | 430 kts | 161° |
| 2026-05-01 14:01 | 57.46370 | 6.84114 | 39281 ft | 430 kts | 160° |
| 2026-05-01 14:02 | 57.40890 | 6.88573 | 39289 ft | 430 kts | 160° |
| 2026-05-01 14:02 | 57.35400 | 6.93021 | 39297 ft | 431 kts | 160° |
| 2026-05-01 14:03 | 57.29909 | 6.97460 | 39302 ft | 431 kts | 161° |
| 2026-05-01 14:03 | 57.24417 | 7.01882 | 39309 ft | 431 kts | 161° |
| 2026-05-01 14:04 | 57.18917 | 7.06302 | 39314 ft | 431 kts | 161° |
| 2026-05-01 14:04 | 57.14345 | 7.09955 | 39307 ft | 431 kts | 160° |
| 2026-05-01 14:05 | 57.07920 | 7.15079 | 39302 ft | 431 kts | 160° |
| 2026-05-01 14:05 | 57.02459 | 7.19419 | 39303 ft | 431 kts | 160° |
| 2026-05-01 14:06 | 56.96953 | 7.23788 | 39302 ft | 431 kts | 160° |
| 2026-05-01 14:06 | 56.91442 | 7.28144 | 39308 ft | 431 kts | 160° |
| 2026-05-01 14:07 | 56.85929 | 7.32503 | 39306 ft | 432 kts | 160° |
| 2026-05-01 14:08 | 56.77665 | 7.39023 | 39323 ft | 431 kts | 160° |
| 2026-05-01 14:08 | 56.72144 | 7.43328 | 39334 ft | 431 kts | 160° |
| 2026-05-01 14:09 | 56.66622 | 7.47612 | 39332 ft | 431 kts | 160° |
| 2026-05-01 14:09 | 56.61106 | 7.51904 | 39322 ft | 431 kts | 160° |
| 2026-05-01 14:10 | 56.55595 | 7.56176 | 39325 ft | 431 kts | 160° |
| 2026-05-01 14:10 | 56.50072 | 7.60423 | 39320 ft | 431 kts | 160° |
| 2026-05-01 14:11 | 56.44542 | 7.64667 | 39325 ft | 432 kts | 160° |
| 2026-05-01 14:11 | 56.36247 | 7.71023 | 39329 ft | 432 kts | 160° |
| 2026-05-01 14:12 | 56.30708 | 7.75255 | 39324 ft | 432 kts | 159° |
| 2026-05-01 14:12 | 56.25165 | 7.79472 | 39327 ft | 433 kts | 159° |
| 2026-05-01 14:13 | 56.20557 | 7.82961 | 39334 ft | 433 kts | 160° |
| 2026-05-01 14:13 | 56.14072 | 7.87857 | 39335 ft | 433 kts | 160° |
| 2026-05-01 14:14 | 56.08518 | 7.92036 | 39337 ft | 433 kts | 160° |
| 2026-05-01 14:14 | 56.02959 | 7.96206 | 39333 ft | 433 kts | 159° |
| 2026-05-01 14:15 | 55.97391 | 8.00387 | 39328 ft | 434 kts | 159° |
| 2026-05-01 14:15 | 55.91812 | 8.04549 | 39330 ft | 436 kts | 159° |
| 2026-05-01 14:16 | 55.86209 | 8.08700 | 39333 ft | 436 kts | 159° |
| 2026-05-01 14:16 | 55.80596 | 8.12858 | 39341 ft | 437 kts | 159° |
| 2026-05-01 14:17 | 55.74986 | 8.17010 | 39347 ft | 437 kts | 159° |
| 2026-05-01 14:17 | 55.69381 | 8.21145 | 39351 ft | 437 kts | 159° |
| 2026-05-01 14:18 | 55.63803 | 8.25242 | 39354 ft | 437 kts | 159° |
| 2026-05-01 14:18 | 55.59100 | 8.28688 | 39357 ft | 437 kts | 159° |
| 2026-05-01 14:19 | 55.52566 | 8.33447 | 39353 ft | 437 kts | 160° |
| 2026-05-01 14:19 | 55.46945 | 8.37537 | 39346 ft | 437 kts | 159° |
| 2026-05-01 14:20 | 55.38509 | 8.43664 | 39346 ft | 438 kts | 159° |
| 2026-05-01 14:21 | 55.32873 | 8.47727 | 39370 ft | 438 kts | 159° |
| 2026-05-01 14:21 | 55.27235 | 8.51777 | 39363 ft | 438 kts | 159° |
| 2026-05-01 14:22 | 55.18764 | 8.57853 | 39359 ft | 438 kts | 159° |
| 2026-05-01 14:22 | 55.13129 | 8.61897 | 39358 ft | 438 kts | 159° |
| 2026-05-01 14:23 | 55.07490 | 8.65919 | 39354 ft | 438 kts | 159° |
| 2026-05-01 14:23 | 55.01843 | 8.69914 | 39354 ft | 438 kts | 159° |
| 2026-05-01 14:24 | 54.96198 | 8.73899 | 39353 ft | 438 kts | 159° |
| 2026-05-01 14:24 | 54.90548 | 8.77892 | 39349 ft | 438 kts | 159° |
| 2026-05-01 14:25 | 54.84986 | 8.82088 | 39348 ft | 439 kts | 156° |
| 2026-05-01 14:25 | 54.79463 | 8.86640 | 39352 ft | 440 kts | 155° |
| 2026-05-01 14:26 | 54.71178 | 8.93442 | 39355 ft | 440 kts | 156° |
| 2026-05-01 14:27 | 54.65620 | 8.97883 | 39355 ft | 440 kts | 156° |
| 2026-05-01 14:27 | 54.60057 | 9.02301 | 39351 ft | 440 kts | 156° |
| 2026-05-01 14:28 | 54.52622 | 9.08227 | 39358 ft | 440 kts | 156° |
| 2026-05-01 14:28 | 54.47063 | 9.12633 | 39355 ft | 440 kts | 156° |
| 2026-05-01 14:29 | 54.41504 | 9.17025 | 39361 ft | 439 kts | 156° |
| 2026-05-01 14:30 | 54.30426 | 9.25656 | 39356 ft | 438 kts | 158° |
| 2026-05-01 14:31 | 54.22012 | 9.31796 | 39359 ft | 438 kts | 158° |
| 2026-05-01 14:31 | 54.16402 | 9.35864 | 39356 ft | 438 kts | 158° |
| 2026-05-01 14:32 | 54.10797 | 9.39963 | 39347 ft | 438 kts | 158° |
| 2026-05-01 14:32 | 54.05189 | 9.44068 | 39343 ft | 439 kts | 158° |
| 2026-05-01 14:33 | 53.99571 | 9.48144 | 39348 ft | 439 kts | 158° |
| 2026-05-01 14:33 | 53.93960 | 9.52197 | 39357 ft | 438 kts | 158° |
| 2026-05-01 14:34 | 53.88348 | 9.56236 | 39358 ft | 438 kts | 158° |
| 2026-05-01 14:34 | 53.82736 | 9.60268 | 39353 ft | 438 kts | 158° |
| 2026-05-01 14:35 | 53.77136 | 9.64295 | 39363 ft | 437 kts | 158° |
| 2026-05-01 14:35 | 53.71537 | 9.68303 | 39368 ft | 437 kts | 158° |
| 2026-05-01 14:36 | 53.65935 | 9.72297 | 39366 ft | 437 kts | 158° |
| 2026-05-01 14:36 | 53.60331 | 9.76287 | 39371 ft | 437 kts | 158° |
| 2026-05-01 14:37 | 53.54719 | 9.80265 | 39364 ft | 438 kts | 158° |
| 2026-05-01 14:37 | 53.49105 | 9.84219 | 39365 ft | 438 kts | 158° |
| 2026-05-01 14:38 | 53.43522 | 9.88152 | 39346 ft | 438 kts | 158° |
| 2026-05-01 14:38 | 53.37895 | 9.92116 | 39349 ft | 438 kts | 158° |
| 2026-05-01 14:39 | 53.32272 | 9.96062 | 39349 ft | 439 kts | 158° |
| 2026-05-01 14:39 | 53.26643 | 10.00006 | 39353 ft | 438 kts | 158° |
| 2026-05-01 14:40 | 53.21017 | 10.03924 | 39351 ft | 439 kts | 158° |
| 2026-05-01 14:40 | 53.15379 | 10.07839 | 39357 ft | 439 kts | 158° |
| 2026-05-01 14:41 | 53.09744 | 10.11737 | 39362 ft | 438 kts | 158° |
| 2026-05-01 14:41 | 53.04122 | 10.15616 | 39369 ft | 437 kts | 158° |
| 2026-05-01 14:42 | 52.98497 | 10.19493 | 39368 ft | 438 kts | 158° |
| 2026-05-01 14:42 | 52.92871 | 10.23362 | 39368 ft | 438 kts | 158° |
| 2026-05-01 14:43 | 52.87243 | 10.27225 | 39373 ft | 438 kts | 158° |
| 2026-05-01 14:43 | 52.81616 | 10.31072 | 39368 ft | 438 kts | 158° |
| 2026-05-01 14:44 | 52.75982 | 10.34908 | 39350 ft | 438 kts | 158° |
| 2026-05-01 14:44 | 52.67516 | 10.40651 | 39349 ft | 439 kts | 158° |
| 2026-05-01 14:45 | 52.59191 | 10.46283 | 39365 ft | 438 kts | 158° |
| 2026-05-01 14:46 | 52.53547 | 10.50097 | 39360 ft | 439 kts | 158° |
| 2026-05-01 14:46 | 52.45107 | 10.55760 | 39369 ft | 439 kts | 158° |
| 2026-05-01 14:47 | 52.39417 | 10.59555 | 39367 ft | 439 kts | 158° |
| 2026-05-01 14:48 | 52.30970 | 10.65184 | 39367 ft | 439 kts | 158° |
| 2026-05-01 14:48 | 52.22480 | 10.70822 | 39367 ft | 439 kts | 158° |
| 2026-05-01 14:49 | 52.11141 | 10.78328 | 39359 ft | 440 kts | 158° |
| 2026-05-01 14:50 | 51.99764 | 10.85793 | 39370 ft | 441 kts | 158° |
| 2026-05-01 14:51 | 51.91232 | 10.91377 | 39368 ft | 441 kts | 158° |
| 2026-05-01 14:52 | 51.82681 | 10.96944 | 39386 ft | 441 kts | 158° |
| 2026-05-01 14:53 | 51.74144 | 11.02485 | 39385 ft | 441 kts | 158° |
| 2026-05-01 14:53 | 51.68454 | 11.06176 | 39372 ft | 441 kts | 158° |
| 2026-05-01 14:54 | 51.62756 | 11.09844 | 39374 ft | 442 kts | 158° |
| 2026-05-01 14:54 | 51.57047 | 11.13504 | 39384 ft | 442 kts | 158° |
| 2026-05-01 14:55 | 51.51342 | 11.17176 | 39385 ft | 442 kts | 158° |
| 2026-05-01 14:55 | 51.45625 | 11.20839 | 39386 ft | 442 kts | 158° |
| 2026-05-01 14:56 | 51.39907 | 11.24487 | 39389 ft | 443 kts | 158° |
| 2026-05-01 14:56 | 51.34184 | 11.28136 | 39387 ft | 443 kts | 158° |
| 2026-05-01 14:57 | 51.28454 | 11.31755 | 39387 ft | 442 kts | 158° |
| 2026-05-01 14:57 | 51.19873 | 11.37181 | 39387 ft | 442 kts | 158° |
| 2026-05-01 14:58 | 51.14149 | 11.40787 | 39383 ft | 442 kts | 158° |
| 2026-05-01 14:58 | 51.08433 | 11.44382 | 39397 ft | 442 kts | 158° |
| 2026-05-01 14:59 | 51.02703 | 11.47960 | 39387 ft | 443 kts | 158° |
| 2026-05-01 14:59 | 50.96975 | 11.51548 | 39387 ft | 443 kts | 158° |
| 2026-05-01 15:00 | 50.88365 | 11.56919 | 39389 ft | 443 kts | 158° |
| 2026-05-01 15:01 | 50.82631 | 11.60509 | 39395 ft | 443 kts | 158° |
| 2026-05-01 15:01 | 50.76888 | 11.64088 | 39389 ft | 444 kts | 158° |
| 2026-05-01 15:02 | 50.71171 | 11.67610 | 39395 ft | 444 kts | 158° |
| 2026-05-01 15:02 | 50.65424 | 11.71141 | 39396 ft | 444 kts | 158° |
| 2026-05-01 15:03 | 50.59669 | 11.74683 | 39394 ft | 444 kts | 158° |
| 2026-05-01 15:03 | 50.53905 | 11.78215 | 39391 ft | 445 kts | 158° |
| 2026-05-01 15:04 | 50.48133 | 11.81736 | 39377 ft | 446 kts | 158° |
| 2026-05-01 15:04 | 50.45204 | 11.83536 | 38916 ft | 456 kts | 157° |
| 2026-05-01 15:04 | 50.42263 | 11.85445 | 38161 ft | 458 kts | 156° |
| 2026-05-01 15:04 | 50.39348 | 11.87430 | 37784 ft | 457 kts | 155° |
| 2026-05-01 15:05 | 50.36441 | 11.89442 | 37509 ft | 456 kts | 155° |
| 2026-05-01 15:05 | 50.33547 | 11.91442 | 37242 ft | 454 kts | 155° |
| 2026-05-01 15:05 | 50.30671 | 11.93415 | 36798 ft | 449 kts | 155° |
| 2026-05-01 15:05 | 50.27816 | 11.95353 | 36286 ft | 445 kts | 155° |
| 2026-05-01 15:06 | 50.24979 | 11.97257 | 35754 ft | 442 kts | 155° |
| 2026-05-01 15:06 | 50.22163 | 11.99138 | 35256 ft | 438 kts | 155° |
| 2026-05-01 15:06 | 50.19368 | 12.01008 | 34756 ft | 436 kts | 155° |
| 2026-05-01 15:06 | 50.16595 | 12.02866 | 34207 ft | 433 kts | 155° |
| 2026-05-01 15:07 | 50.13838 | 12.04716 | 33681 ft | 429 kts | 155° |
| 2026-05-01 15:07 | 50.11108 | 12.06548 | 33186 ft | 425 kts | 155° |
| 2026-05-01 15:07 | 50.08403 | 12.08359 | 32690 ft | 421 kts | 155° |
| 2026-05-01 15:07 | 50.05720 | 12.10150 | 32203 ft | 418 kts | 155° |
| 2026-05-01 15:08 | 50.03060 | 12.11920 | 31726 ft | 414 kts | 155° |
| 2026-05-01 15:08 | 50.00425 | 12.13672 | 31244 ft | 411 kts | 154° |
| 2026-05-01 15:08 | 49.97803 | 12.15416 | 30790 ft | 408 kts | 154° |
| 2026-05-01 15:08 | 49.95205 | 12.17147 | 30312 ft | 406 kts | 154° |
| 2026-05-01 15:09 | 49.92623 | 12.18864 | 29844 ft | 401 kts | 154° |
| 2026-05-01 15:09 | 49.90067 | 12.20560 | 29408 ft | 397 kts | 154° |
| 2026-05-01 15:09 | 49.87535 | 12.22235 | 28981 ft | 394 kts | 154° |
| 2026-05-01 15:09 | 49.85027 | 12.23889 | 28569 ft | 390 kts | 154° |
| 2026-05-01 15:10 | 49.82543 | 12.25527 | 28152 ft | 387 kts | 154° |
| 2026-05-01 15:10 | 49.77646 | 12.28754 | 27315 ft | 381 kts | 154° |
| 2026-05-01 15:10 | 49.75216 | 12.30354 | 26888 ft | 378 kts | 153° |
| 2026-05-01 15:11 | 49.72824 | 12.32013 | 26467 ft | 373 kts | 148° |
| 2026-05-01 15:11 | 49.68649 | 12.36555 | 25922 ft | 371 kts | 139° |
| 2026-05-01 15:11 | 49.66598 | 12.38959 | 25665 ft | 370 kts | 139° |
| 2026-05-01 15:12 | 49.64546 | 12.41349 | 25402 ft | 369 kts | 139° |
| 2026-05-01 15:12 | 49.60463 | 12.46084 | 24893 ft | 365 kts | 139° |
| 2026-05-01 15:12 | 49.58436 | 12.48434 | 24644 ft | 364 kts | 139° |
| 2026-05-01 15:13 | 49.52419 | 12.55423 | 23874 ft | 359 kts | 139° |
| 2026-05-01 15:14 | 49.48450 | 12.60037 | 23358 ft | 356 kts | 139° |
| 2026-05-01 15:14 | 49.46454 | 12.62284 | 23121 ft | 357 kts | 144° |
| 2026-05-01 15:14 | 49.41619 | 12.64003 | 22628 ft | 369 kts | 185° |
| 2026-05-01 15:15 | 49.36639 | 12.61948 | 22156 ft | 371 kts | 194° |
| 2026-05-01 15:15 | 49.32544 | 12.60049 | 21767 ft | 369 kts | 194° |
| 2026-05-01 15:16 | 49.27651 | 12.57794 | 21306 ft | 365 kts | 194° |
| 2026-05-01 15:16 | 49.22798 | 12.55592 | 20849 ft | 363 kts | 194° |
| 2026-05-01 15:17 | 49.17975 | 12.53412 | 20401 ft | 360 kts | 194° |
| 2026-05-01 15:18 | 49.10811 | 12.50193 | 19733 ft | 356 kts | 194° |
| 2026-05-01 15:18 | 49.08443 | 12.49127 | 19515 ft | 354 kts | 194° |
| 2026-05-01 15:19 | 49.01386 | 12.45951 | 18879 ft | 351 kts | 194° |
| 2026-05-01 15:19 | 48.96716 | 12.43857 | 18416 ft | 348 kts | 194° |
| 2026-05-01 15:19 | 48.94400 | 12.42819 | 18185 ft | 347 kts | 194° |
| 2026-05-01 15:20 | 48.89786 | 12.40753 | 17708 ft | 344 kts | 194° |
| 2026-05-01 15:20 | 48.87498 | 12.39732 | 17472 ft | 343 kts | 194° |
| 2026-05-01 15:20 | 48.85217 | 12.38718 | 17245 ft | 341 kts | 194° |
| 2026-05-01 15:21 | 48.82937 | 12.37701 | 17007 ft | 341 kts | 194° |
| 2026-05-01 15:21 | 48.80663 | 12.36688 | 16779 ft | 340 kts | 194° |
| 2026-05-01 15:21 | 48.78394 | 12.35680 | 16550 ft | 339 kts | 193° |
| 2026-05-01 15:21 | 48.76136 | 12.34683 | 16319 ft | 338 kts | 193° |
| 2026-05-01 15:22 | 48.71641 | 12.32695 | 15866 ft | 335 kts | 194° |
| 2026-05-01 15:22 | 48.69406 | 12.31704 | 15642 ft | 334 kts | 194° |
| 2026-05-01 15:22 | 48.67179 | 12.30719 | 15418 ft | 333 kts | 193° |
| 2026-05-01 15:23 | 48.64959 | 12.29741 | 15195 ft | 331 kts | 193° |
| 2026-05-01 15:23 | 48.62749 | 12.28771 | 14989 ft | 331 kts | 193° |
| 2026-05-01 15:23 | 48.60541 | 12.27801 | 14772 ft | 330 kts | 193° |
| 2026-05-01 15:23 | 48.58336 | 12.26844 | 14554 ft | 329 kts | 193° |
| 2026-05-01 15:24 | 48.56131 | 12.25945 | 14334 ft | 327 kts | 192° |
| 2026-05-01 15:24 | 48.53933 | 12.25080 | 14117 ft | 326 kts | 192° |
| 2026-05-01 15:24 | 48.51753 | 12.24101 | 13866 ft | 327 kts | 201° |
| 2026-05-01 15:24 | 48.49846 | 12.22241 | 13629 ft | 328 kts | 222° |
| 2026-05-01 15:25 | 48.48467 | 12.19522 | 13394 ft | 328 kts | 243° |
| 2026-05-01 15:25 | 48.47782 | 12.16335 | 13137 ft | 324 kts | 263° |
| 2026-05-01 15:25 | 48.47539 | 12.12968 | 12911 ft | 323 kts | 265° |
| 2026-05-01 15:25 | 48.47304 | 12.09615 | 12679 ft | 321 kts | 265° |
| 2026-05-01 15:26 | 48.47062 | 12.06281 | 12402 ft | 320 kts | 265° |
| 2026-05-01 15:26 | 48.46814 | 12.02952 | 11910 ft | 318 kts | 265° |
| 2026-05-01 15:26 | 48.46564 | 11.99640 | 11353 ft | 319 kts | 264° |
| 2026-05-01 15:26 | 48.46313 | 11.96336 | 11091 ft | 315 kts | 264° |
| 2026-05-01 15:27 | 48.46064 | 11.93070 | 10932 ft | 312 kts | 264° |
| 2026-05-01 15:27 | 48.45818 | 11.89837 | 10760 ft | 310 kts | 264° |
| 2026-05-01 15:27 | 48.45572 | 11.86607 | 10597 ft | 310 kts | 264° |
| 2026-05-01 15:28 | 48.45074 | 11.80166 | 10260 ft | 309 kts | 264° |
| 2026-05-01 15:28 | 48.44825 | 11.76976 | 10089 ft | 305 kts | 264° |
| 2026-05-01 15:28 | 48.44580 | 11.73810 | 9926 ft | 305 kts | 264° |
| 2026-05-01 15:29 | 48.44096 | 11.67504 | 9187 ft | 303 kts | 263° |
| 2026-05-01 15:29 | 48.43851 | 11.64356 | 8751 ft | 302 kts | 263° |
| 2026-05-01 15:29 | 48.43361 | 11.58110 | 7907 ft | 300 kts | 263° |
| 2026-05-01 15:30 | 48.42878 | 11.51908 | 7072 ft | 296 kts | 262° |
| 2026-05-01 15:31 | 48.41886 | 11.39555 | 5084 ft | 297 kts | 262° |
| 2026-05-01 15:31 | 48.41153 | 11.33723 | 5011 ft | 282 kts | 240° |
| 2026-05-01 15:32 | 48.38141 | 11.30480 | 5013 ft | 268 kts | 183° |
| 2026-05-01 15:32 | 48.34930 | 11.32366 | 5014 ft | 255 kts | 131° |
| 2026-05-01 15:33 | 48.33334 | 11.39600 | 5005 ft | 234 kts | 85° |
| 2026-05-01 15:34 | 48.33858 | 11.46113 | 5017 ft | 189 kts | 84° |